sensor_id;sensor_type;location;lat;lon;timestamp;P1;durP1;ratioP1;P2;durP2;ratioP2
25780;SDS011;13626;48.128;11.628;2024-02-28T00:00:30;26.45;;;15.70;;
25780;SDS011;13626;48.128;11.628;2024-02-28T00:02:57;23.40;;;14.40;;
25780;SDS011;13626;48.128;11.628;2024-02-28T00:05:24;27.05;;;14.80;;
25780;SDS011;13626;48.128;11.628;2024-02-28T00:07:52;24.38;;;15.25;;
25780;SDS011;13626;48.128;11.628;2024-02-28T00:10:19;25.15;;;15.38;;
25780;SDS011;13626;48.128;11.628;2024-02-28T00:12:47;24.90;;;15.63;;
25780;SDS011;13626;48.128;11.628;2024-02-28T00:15:14;24.27;;;14.77;;
25780;SDS011;13626;48.128;11.628;2024-02-28T00:17:42;23.55;;;15.20;;
25780;SDS011;13626;48.128;11.628;2024-02-28T00:20:10;28.80;;;16.25;;
25780;SDS011;13626;48.128;11.628;2024-02-28T00:22:39;26.25;;;15.00;;
25780;SDS011;13626;48.128;11.628;2024-02-28T00:25:06;27.15;;;16.25;;
25780;SDS011;13626;48.128;11.628;2024-02-28T00:27:34;24.80;;;15.13;;
25780;SDS011;13626;48.128;11.628;2024-02-28T00:30:05;27.48;;;15.70;;
25780;SDS011;13626;48.128;11.628;2024-02-28T00:32:33;28.13;;;16.52;;
25780;SDS011;13626;48.128;11.628;2024-02-28T00:35:00;27.48;;;16.30;;
25780;SDS011;13626;48.128;11.628;2024-02-28T00:37:29;26.20;;;16.17;;
25780;SDS011;13626;48.128;11.628;2024-02-28T00:39:56;24.42;;;15.35;;
25780;SDS011;13626;48.128;11.628;2024-02-28T00:42:24;28.20;;;15.90;;
25780;SDS011;13626;48.128;11.628;2024-02-28T00:44:53;27.00;;;15.52;;
25780;SDS011;13626;48.128;11.628;2024-02-28T00:47:20;26.33;;;15.68;;
25780;SDS011;13626;48.128;11.628;2024-02-28T00:49:48;23.17;;;14.85;;
25780;SDS011;13626;48.128;11.628;2024-02-28T00:52:15;26.05;;;15.93;;
25780;SDS011;13626;48.128;11.628;2024-02-28T00:54:43;25.92;;;15.23;;
25780;SDS011;13626;48.128;11.628;2024-02-28T00:57:10;27.63;;;16.23;;
25780;SDS011;13626;48.128;11.628;2024-02-28T00:59:37;27.05;;;16.10;;
25780;SDS011;13626;48.128;11.628;2024-02-28T01:02:06;25.02;;;14.80;;
25780;SDS011;13626;48.128;11.628;2024-02-28T01:04:33;25.80;;;15.88;;
25780;SDS011;13626;48.128;11.628;2024-02-28T01:07:00;25.52;;;15.52;;
25780;SDS011;13626;48.128;11.628;2024-02-28T01:09:28;27.08;;;15.85;;
25780;SDS011;13626;48.128;11.628;2024-02-28T01:11:55;26.77;;;15.93;;
25780;SDS011;13626;48.128;11.628;2024-02-28T01:14:22;24.98;;;15.93;;
25780;SDS011;13626;48.128;11.628;2024-02-28T01:16:50;24.80;;;15.75;;
25780;SDS011;13626;48.128;11.628;2024-02-28T01:19:17;25.60;;;16.77;;
25780;SDS011;13626;48.128;11.628;2024-02-28T01:21:44;26.05;;;15.10;;
25780;SDS011;13626;48.128;11.628;2024-02-28T01:24:12;25.58;;;15.93;;
25780;SDS011;13626;48.128;11.628;2024-02-28T01:26:39;25.95;;;15.90;;
25780;SDS011;13626;48.128;11.628;2024-02-28T01:29:07;25.83;;;15.90;;
25780;SDS011;13626;48.128;11.628;2024-02-28T01:31:34;26.35;;;15.30;;
25780;SDS011;13626;48.128;11.628;2024-02-28T01:34:02;26.98;;;16.25;;
25780;SDS011;13626;48.128;11.628;2024-02-28T01:36:29;25.80;;;15.98;;
25780;SDS011;13626;48.128;11.628;2024-02-28T01:38:56;26.60;;;16.55;;
25780;SDS011;13626;48.128;11.628;2024-02-28T01:41:24;23.55;;;15.35;;
25780;SDS011;13626;48.128;11.628;2024-02-28T01:43:51;25.00;;;15.88;;
25780;SDS011;13626;48.128;11.628;2024-02-28T01:46:21;27.27;;;15.38;;
25780;SDS011;13626;48.128;11.628;2024-02-28T01:48:49;26.42;;;16.08;;
25780;SDS011;13626;48.128;11.628;2024-02-28T01:51:16;24.08;;;14.85;;
25780;SDS011;13626;48.128;11.628;2024-02-28T01:53:44;26.15;;;16.20;;
25780;SDS011;13626;48.128;11.628;2024-02-28T01:56:12;26.77;;;16.45;;
25780;SDS011;13626;48.128;11.628;2024-02-28T01:58:46;26.10;;;15.35;;
25780;SDS011;13626;48.128;11.628;2024-02-28T02:01:14;25.15;;;15.77;;
25780;SDS011;13626;48.128;11.628;2024-02-28T02:03:43;27.35;;;16.58;;
25780;SDS011;13626;48.128;11.628;2024-02-28T02:06:10;29.23;;;17.45;;
25780;SDS011;13626;48.128;11.628;2024-02-28T02:08:38;27.55;;;16.65;;
25780;SDS011;13626;48.128;11.628;2024-02-28T02:11:05;27.40;;;16.75;;
25780;SDS011;13626;48.128;11.628;2024-02-28T02:13:32;27.67;;;16.55;;
25780;SDS011;13626;48.128;11.628;2024-02-28T02:16:01;30.63;;;17.60;;
25780;SDS011;13626;48.128;11.628;2024-02-28T02:18:29;28.27;;;17.38;;
25780;SDS011;13626;48.128;11.628;2024-02-28T02:21:02;28.65;;;16.65;;
25780;SDS011;13626;48.128;11.628;2024-02-28T02:23:30;27.60;;;17.40;;
25780;SDS011;13626;48.128;11.628;2024-02-28T02:25:58;26.45;;;16.50;;
25780;SDS011;13626;48.128;11.628;2024-02-28T02:28:25;28.88;;;17.00;;
25780;SDS011;13626;48.128;11.628;2024-02-28T02:30:53;27.50;;;17.00;;
25780;SDS011;13626;48.128;11.628;2024-02-28T02:33:20;27.75;;;16.67;;
25780;SDS011;13626;48.128;11.628;2024-02-28T02:35:47;28.15;;;16.38;;
25780;SDS011;13626;48.128;11.628;2024-02-28T02:38:15;27.20;;;17.13;;
25780;SDS011;13626;48.128;11.628;2024-02-28T02:40:42;32.08;;;18.50;;
25780;SDS011;13626;48.128;11.628;2024-02-28T02:43:10;32.22;;;18.33;;
25780;SDS011;13626;48.128;11.628;2024-02-28T02:45:37;31.38;;;19.10;;
25780;SDS011;13626;48.128;11.628;2024-02-28T02:48:05;34.80;;;19.23;;
25780;SDS011;13626;48.128;11.628;2024-02-28T02:50:32;29.70;;;18.58;;
25780;SDS011;13626;48.128;11.628;2024-02-28T02:52:59;35.58;;;19.95;;
25780;SDS011;13626;48.128;11.628;2024-02-28T02:55:28;34.30;;;19.45;;
25780;SDS011;13626;48.128;11.628;2024-02-28T02:57:55;31.67;;;19.00;;
25780;SDS011;13626;48.128;11.628;2024-02-28T03:00:23;33.08;;;19.48;;
25780;SDS011;13626;48.128;11.628;2024-02-28T03:02:50;30.15;;;18.42;;
25780;SDS011;13626;48.128;11.628;2024-02-28T03:05:17;32.90;;;19.75;;
25780;SDS011;13626;48.128;11.628;2024-02-28T03:07:45;34.47;;;20.00;;
25780;SDS011;13626;48.128;11.628;2024-02-28T03:10:12;35.63;;;20.00;;
25780;SDS011;13626;48.128;11.628;2024-02-28T03:12:39;32.22;;;18.30;;
25780;SDS011;13626;48.128;11.628;2024-02-28T03:15:07;34.92;;;19.10;;
25780;SDS011;13626;48.128;11.628;2024-02-28T03:17:35;31.20;;;19.05;;
25780;SDS011;13626;48.128;11.628;2024-02-28T03:20:02;32.35;;;18.23;;
25780;SDS011;13626;48.128;11.628;2024-02-28T03:22:29;31.92;;;18.73;;
25780;SDS011;13626;48.128;11.628;2024-02-28T03:24:56;31.40;;;18.13;;
25780;SDS011;13626;48.128;11.628;2024-02-28T03:27:24;29.55;;;18.90;;
25780;SDS011;13626;48.128;11.628;2024-02-28T03:29:51;33.90;;;19.30;;
25780;SDS011;13626;48.128;11.628;2024-02-28T03:32:18;31.98;;;18.35;;
25780;SDS011;13626;48.128;11.628;2024-02-28T03:34:45;29.42;;;18.20;;
25780;SDS011;13626;48.128;11.628;2024-02-28T03:37:13;33.92;;;18.88;;
25780;SDS011;13626;48.128;11.628;2024-02-28T03:39:40;30.63;;;19.48;;
25780;SDS011;13626;48.128;11.628;2024-02-28T03:42:07;32.55;;;18.92;;
25780;SDS011;13626;48.128;11.628;2024-02-28T03:44:35;33.15;;;19.17;;
25780;SDS011;13626;48.128;11.628;2024-02-28T03:47:05;37.42;;;20.17;;
25780;SDS011;13626;48.128;11.628;2024-02-28T03:49:32;36.20;;;19.00;;
25780;SDS011;13626;48.128;11.628;2024-02-28T03:51:59;33.13;;;19.08;;
25780;SDS011;13626;48.128;11.628;2024-02-28T03:54:28;30.80;;;18.52;;
25780;SDS011;13626;48.128;11.628;2024-02-28T03:56:55;32.90;;;18.90;;
25780;SDS011;13626;48.128;11.628;2024-02-28T03:59:22;33.40;;;18.63;;
25780;SDS011;13626;48.128;11.628;2024-02-28T04:01:50;28.85;;;17.50;;
25780;SDS011;13626;48.128;11.628;2024-02-28T04:04:17;30.95;;;17.65;;
25780;SDS011;13626;48.128;11.628;2024-02-28T04:06:44;31.27;;;17.58;;
25780;SDS011;13626;48.128;11.628;2024-02-28T04:09:11;32.47;;;18.70;;
25780;SDS011;13626;48.128;11.628;2024-02-28T04:11:39;34.15;;;18.38;;
25780;SDS011;13626;48.128;11.628;2024-02-28T04:14:06;33.65;;;18.02;;
25780;SDS011;13626;48.128;11.628;2024-02-28T04:16:34;32.10;;;18.33;;
25780;SDS011;13626;48.128;11.628;2024-02-28T04:19:01;33.38;;;19.45;;
25780;SDS011;13626;48.128;11.628;2024-02-28T04:21:28;34.90;;;19.58;;
25780;SDS011;13626;48.128;11.628;2024-02-28T04:23:56;31.25;;;18.42;;
25780;SDS011;13626;48.128;11.628;2024-02-28T04:26:23;33.83;;;18.88;;
25780;SDS011;13626;48.128;11.628;2024-02-28T04:28:50;35.65;;;19.77;;
25780;SDS011;13626;48.128;11.628;2024-02-28T04:31:17;30.73;;;18.35;;
25780;SDS011;13626;48.128;11.628;2024-02-28T04:33:45;32.50;;;18.80;;
25780;SDS011;13626;48.128;11.628;2024-02-28T04:36:12;34.58;;;19.63;;
25780;SDS011;13626;48.128;11.628;2024-02-28T04:38:41;35.78;;;20.38;;
25780;SDS011;13626;48.128;11.628;2024-02-28T04:41:08;35.25;;;19.30;;
25780;SDS011;13626;48.128;11.628;2024-02-28T04:43:41;33.30;;;19.15;;
25780;SDS011;13626;48.128;11.628;2024-02-28T04:46:08;35.70;;;19.17;;
25780;SDS011;13626;48.128;11.628;2024-02-28T04:48:37;36.05;;;19.05;;
25780;SDS011;13626;48.128;11.628;2024-02-28T04:51:05;37.33;;;20.48;;
25780;SDS011;13626;48.128;11.628;2024-02-28T04:53:32;36.10;;;20.45;;
25780;SDS011;13626;48.128;11.628;2024-02-28T04:56:00;36.97;;;20.95;;
25780;SDS011;13626;48.128;11.628;2024-02-28T04:58:27;37.75;;;20.40;;
25780;SDS011;13626;48.128;11.628;2024-02-28T05:00:54;38.40;;;20.98;;
25780;SDS011;13626;48.128;11.628;2024-02-28T05:03:22;40.35;;;21.75;;
25780;SDS011;13626;48.128;11.628;2024-02-28T05:05:51;38.42;;;21.08;;
25780;SDS011;13626;48.128;11.628;2024-02-28T05:08:21;40.05;;;21.13;;
25780;SDS011;13626;48.128;11.628;2024-02-28T05:10:49;37.22;;;21.13;;
25780;SDS011;13626;48.128;11.628;2024-02-28T05:13:17;33.85;;;20.25;;
25780;SDS011;13626;48.128;11.628;2024-02-28T05:15:44;35.47;;;21.27;;
25780;SDS011;13626;48.128;11.628;2024-02-28T05:18:12;37.83;;;21.35;;
25780;SDS011;13626;48.128;11.628;2024-02-28T05:20:39;38.05;;;20.85;;
25780;SDS011;13626;48.128;11.628;2024-02-28T05:23:06;37.67;;;21.48;;
25780;SDS011;13626;48.128;11.628;2024-02-28T05:25:34;39.20;;;22.60;;
25780;SDS011;13626;48.128;11.628;2024-02-28T05:28:01;42.47;;;23.77;;
25780;SDS011;13626;48.128;11.628;2024-02-28T05:30:28;39.22;;;21.23;;
25780;SDS011;13626;48.128;11.628;2024-02-28T05:32:56;36.65;;;21.38;;
25780;SDS011;13626;48.128;11.628;2024-02-28T05:35:23;39.10;;;20.60;;
25780;SDS011;13626;48.128;11.628;2024-02-28T05:37:54;38.13;;;20.80;;
25780;SDS011;13626;48.128;11.628;2024-02-28T05:40:21;36.78;;;20.67;;
25780;SDS011;13626;48.128;11.628;2024-02-28T05:42:48;35.92;;;20.55;;
25780;SDS011;13626;48.128;11.628;2024-02-28T05:45:16;36.83;;;20.25;;
25780;SDS011;13626;48.128;11.628;2024-02-28T05:47:43;37.92;;;21.20;;
25780;SDS011;13626;48.128;11.628;2024-02-28T05:50:10;37.67;;;22.00;;
25780;SDS011;13626;48.128;11.628;2024-02-28T05:52:41;37.40;;;21.23;;
25780;SDS011;13626;48.128;11.628;2024-02-28T05:55:09;36.55;;;20.52;;
25780;SDS011;13626;48.128;11.628;2024-02-28T05:57:37;39.17;;;21.13;;
25780;SDS011;13626;48.128;11.628;2024-02-28T06:00:05;40.65;;;21.50;;
25780;SDS011;13626;48.128;11.628;2024-02-28T06:02:37;37.25;;;20.80;;
25780;SDS011;13626;48.128;11.628;2024-02-28T06:05:04;40.53;;;21.23;;
25780;SDS011;13626;48.128;11.628;2024-02-28T06:07:32;40.42;;;21.63;;
25780;SDS011;13626;48.128;11.628;2024-02-28T06:09:59;42.10;;;22.02;;
25780;SDS011;13626;48.128;11.628;2024-02-28T06:12:26;41.17;;;22.10;;
25780;SDS011;13626;48.128;11.628;2024-02-28T06:14:54;46.58;;;24.70;;
25780;SDS011;13626;48.128;11.628;2024-02-28T06:17:21;40.60;;;22.58;;
25780;SDS011;13626;48.128;11.628;2024-02-28T06:19:49;44.28;;;22.77;;
25780;SDS011;13626;48.128;11.628;2024-02-28T06:22:16;41.42;;;23.20;;
25780;SDS011;13626;48.128;11.628;2024-02-28T06:24:47;41.22;;;22.00;;
25780;SDS011;13626;48.128;11.628;2024-02-28T06:27:15;43.33;;;24.00;;
25780;SDS011;13626;48.128;11.628;2024-02-28T06:29:42;49.03;;;24.67;;
25780;SDS011;13626;48.128;11.628;2024-02-28T06:32:10;43.42;;;23.30;;
25780;SDS011;13626;48.128;11.628;2024-02-28T06:34:37;42.80;;;22.20;;
25780;SDS011;13626;48.128;11.628;2024-02-28T06:37:05;44.28;;;22.83;;
25780;SDS011;13626;48.128;11.628;2024-02-28T06:39:32;41.58;;;22.70;;
25780;SDS011;13626;48.128;11.628;2024-02-28T06:42:00;38.58;;;21.08;;
25780;SDS011;13626;48.128;11.628;2024-02-28T06:44:27;42.53;;;22.67;;
25780;SDS011;13626;48.128;11.628;2024-02-28T06:46:54;46.42;;;22.40;;
25780;SDS011;13626;48.128;11.628;2024-02-28T06:49:22;42.80;;;22.00;;
25780;SDS011;13626;48.128;11.628;2024-02-28T06:51:49;41.40;;;23.10;;
25780;SDS011;13626;48.128;11.628;2024-02-28T06:54:16;43.95;;;23.52;;
25780;SDS011;13626;48.128;11.628;2024-02-28T06:56:44;39.38;;;21.38;;
25780;SDS011;13626;48.128;11.628;2024-02-28T06:59:11;44.38;;;24.02;;
25780;SDS011;13626;48.128;11.628;2024-02-28T07:01:38;45.63;;;23.30;;
25780;SDS011;13626;48.128;11.628;2024-02-28T07:04:06;41.70;;;22.33;;
25780;SDS011;13626;48.128;11.628;2024-02-28T07:06:33;42.67;;;21.77;;
25780;SDS011;13626;48.128;11.628;2024-02-28T07:09:01;43.45;;;22.65;;
25780;SDS011;13626;48.128;11.628;2024-02-28T07:11:28;39.25;;;21.83;;
25780;SDS011;13626;48.128;11.628;2024-02-28T07:13:55;41.85;;;23.70;;
25780;SDS011;13626;48.128;11.628;2024-02-28T07:16:29;42.35;;;21.67;;
25780;SDS011;13626;48.128;11.628;2024-02-28T07:18:56;37.20;;;21.70;;
25780;SDS011;13626;48.128;11.628;2024-02-28T07:21:23;42.63;;;22.73;;
25780;SDS011;13626;48.128;11.628;2024-02-28T07:23:51;43.67;;;22.17;;
25780;SDS011;13626;48.128;11.628;2024-02-28T07:26:18;41.08;;;22.30;;
25780;SDS011;13626;48.128;11.628;2024-02-28T07:28:53;44.65;;;23.20;;
25780;SDS011;13626;48.128;11.628;2024-02-28T07:31:20;42.95;;;22.63;;
25780;SDS011;13626;48.128;11.628;2024-02-28T07:33:48;48.22;;;24.05;;
25780;SDS011;13626;48.128;11.628;2024-02-28T07:36:16;46.80;;;24.30;;
25780;SDS011;13626;48.128;11.628;2024-02-28T07:38:43;46.63;;;22.45;;
25780;SDS011;13626;48.128;11.628;2024-02-28T07:41:10;46.50;;;23.75;;
25780;SDS011;13626;48.128;11.628;2024-02-28T07:43:41;49.58;;;24.58;;
25780;SDS011;13626;48.128;11.628;2024-02-28T07:46:09;48.67;;;24.77;;
25780;SDS011;13626;48.128;11.628;2024-02-28T07:48:37;48.55;;;23.73;;
25780;SDS011;13626;48.128;11.628;2024-02-28T07:51:06;47.17;;;22.83;;
25780;SDS011;13626;48.128;11.628;2024-02-28T07:53:34;44.72;;;24.30;;
25780;SDS011;13626;48.128;11.628;2024-02-28T07:56:03;48.95;;;23.27;;
25780;SDS011;13626;48.128;11.628;2024-02-28T07:58:31;46.70;;;23.95;;
25780;SDS011;13626;48.128;11.628;2024-02-28T08:00:58;44.75;;;23.13;;
25780;SDS011;13626;48.128;11.628;2024-02-28T08:03:25;49.03;;;23.90;;
25780;SDS011;13626;48.128;11.628;2024-02-28T08:05:53;49.15;;;23.60;;
25780;SDS011;13626;48.128;11.628;2024-02-28T08:08:20;49.80;;;23.83;;
25780;SDS011;13626;48.128;11.628;2024-02-28T08:10:48;50.47;;;24.95;;
25780;SDS011;13626;48.128;11.628;2024-02-28T08:13:15;53.83;;;25.05;;
25780;SDS011;13626;48.128;11.628;2024-02-28T08:15:43;50.53;;;24.67;;
25780;SDS011;13626;48.128;11.628;2024-02-28T08:18:10;52.72;;;25.63;;
25780;SDS011;13626;48.128;11.628;2024-02-28T08:20:38;57.72;;;26.08;;
25780;SDS011;13626;48.128;11.628;2024-02-28T08:23:05;49.88;;;24.23;;
25780;SDS011;13626;48.128;11.628;2024-02-28T08:25:33;66.20;;;26.20;;
25780;SDS011;13626;48.128;11.628;2024-02-28T08:28:00;51.78;;;25.08;;
25780;SDS011;13626;48.128;11.628;2024-02-28T08:30:28;47.28;;;23.98;;
25780;SDS011;13626;48.128;11.628;2024-02-28T08:32:55;47.42;;;24.23;;
25780;SDS011;13626;48.128;11.628;2024-02-28T08:35:22;48.25;;;25.15;;
25780;SDS011;13626;48.128;11.628;2024-02-28T08:37:50;53.97;;;26.23;;
25780;SDS011;13626;48.128;11.628;2024-02-28T08:40:17;44.53;;;23.92;;
25780;SDS011;13626;48.128;11.628;2024-02-28T08:42:45;47.88;;;24.77;;
25780;SDS011;13626;48.128;11.628;2024-02-28T08:45:12;47.75;;;25.08;;
25780;SDS011;13626;48.128;11.628;2024-02-28T08:47:40;46.85;;;24.17;;
25780;SDS011;13626;48.128;11.628;2024-02-28T08:50:08;47.10;;;24.20;;
25780;SDS011;13626;48.128;11.628;2024-02-28T08:52:36;47.97;;;25.10;;
25780;SDS011;13626;48.128;11.628;2024-02-28T08:55:04;54.80;;;26.52;;
25780;SDS011;13626;48.128;11.628;2024-02-28T08:57:32;46.17;;;24.55;;
25780;SDS011;13626;48.128;11.628;2024-02-28T09:00:00;46.38;;;24.45;;
25780;SDS011;13626;48.128;11.628;2024-02-28T09:02:28;56.83;;;24.98;;
25780;SDS011;13626;48.128;11.628;2024-02-28T09:04:55;48.63;;;25.02;;
25780;SDS011;13626;48.128;11.628;2024-02-28T09:07:23;43.92;;;23.20;;
25780;SDS011;13626;48.128;11.628;2024-02-28T09:09:50;47.95;;;24.52;;
25780;SDS011;13626;48.128;11.628;2024-02-28T09:12:18;47.33;;;23.85;;
25780;SDS011;13626;48.128;11.628;2024-02-28T09:14:45;45.67;;;23.25;;
25780;SDS011;13626;48.128;11.628;2024-02-28T09:17:13;50.05;;;24.95;;
25780;SDS011;13626;48.128;11.628;2024-02-28T09:19:41;53.47;;;25.98;;
25780;SDS011;13626;48.128;11.628;2024-02-28T09:22:08;47.03;;;24.45;;
25780;SDS011;13626;48.128;11.628;2024-02-28T09:24:36;47.00;;;24.30;;
25780;SDS011;13626;48.128;11.628;2024-02-28T09:27:04;53.40;;;25.88;;
25780;SDS011;13626;48.128;11.628;2024-02-28T09:29:32;48.60;;;24.25;;
25780;SDS011;13626;48.128;11.628;2024-02-28T09:31:59;53.47;;;24.92;;
25780;SDS011;13626;48.128;11.628;2024-02-28T09:34:27;45.67;;;23.60;;
25780;SDS011;13626;48.128;11.628;2024-02-28T09:36:54;47.75;;;23.73;;
25780;SDS011;13626;48.128;11.628;2024-02-28T09:39:22;48.22;;;24.50;;
25780;SDS011;13626;48.128;11.628;2024-02-28T09:41:49;53.85;;;25.92;;
25780;SDS011;13626;48.128;11.628;2024-02-28T09:44:16;48.95;;;25.00;;
25780;SDS011;13626;48.128;11.628;2024-02-28T09:46:44;54.65;;;26.88;;
25780;SDS011;13626;48.128;11.628;2024-02-28T09:49:11;53.45;;;25.27;;
25780;SDS011;13626;48.128;11.628;2024-02-28T09:51:40;50.35;;;26.35;;
25780;SDS011;13626;48.128;11.628;2024-02-28T09:54:08;53.70;;;25.70;;
25780;SDS011;13626;48.128;11.628;2024-02-28T09:56:35;51.25;;;24.25;;
25780;SDS011;13626;48.128;11.628;2024-02-28T09:59:02;49.45;;;25.15;;
25780;SDS011;13626;48.128;11.628;2024-02-28T10:01:30;62.97;;;27.75;;
25780;SDS011;13626;48.128;11.628;2024-02-28T10:03:59;49.47;;;25.65;;
25780;SDS011;13626;48.128;11.628;2024-02-28T10:06:28;54.10;;;27.40;;
25780;SDS011;13626;48.128;11.628;2024-02-28T10:08:55;51.50;;;26.10;;
25780;SDS011;13626;48.128;11.628;2024-02-28T10:11:23;53.85;;;24.40;;
25780;SDS011;13626;48.128;11.628;2024-02-28T10:13:52;47.35;;;24.30;;
25780;SDS011;13626;48.128;11.628;2024-02-28T10:16:21;48.08;;;25.30;;
25780;SDS011;13626;48.128;11.628;2024-02-28T10:18:51;57.85;;;25.35;;
25780;SDS011;13626;48.128;11.628;2024-02-28T10:21:18;53.42;;;25.73;;
25780;SDS011;13626;48.128;11.628;2024-02-28T10:23:46;50.38;;;25.38;;
25780;SDS011;13626;48.128;11.628;2024-02-28T10:26:13;52.15;;;26.75;;
25780;SDS011;13626;48.128;11.628;2024-02-28T10:28:40;50.95;;;26.23;;
25780;SDS011;13626;48.128;11.628;2024-02-28T10:31:10;45.60;;;24.55;;
25780;SDS011;13626;48.128;11.628;2024-02-28T10:33:41;47.85;;;24.75;;
25780;SDS011;13626;48.128;11.628;2024-02-28T10:36:09;51.10;;;25.30;;
25780;SDS011;13626;48.128;11.628;2024-02-28T10:38:36;45.03;;;23.83;;
25780;SDS011;13626;48.128;11.628;2024-02-28T10:41:04;43.63;;;22.90;;
25780;SDS011;13626;48.128;11.628;2024-02-28T10:43:33;41.80;;;22.48;;
25780;SDS011;13626;48.128;11.628;2024-02-28T10:46:01;36.65;;;21.15;;
25780;SDS011;13626;48.128;11.628;2024-02-28T10:48:31;41.55;;;23.10;;
25780;SDS011;13626;48.128;11.628;2024-02-28T10:50:58;36.00;;;21.27;;
25780;SDS011;13626;48.128;11.628;2024-02-28T10:53:37;40.53;;;23.42;;
25780;SDS011;13626;48.128;11.628;2024-02-28T10:56:05;41.25;;;22.70;;
25780;SDS011;13626;48.128;11.628;2024-02-28T10:58:34;40.33;;;22.48;;
25780;SDS011;13626;48.128;11.628;2024-02-28T11:01:05;42.85;;;23.20;;
25780;SDS011;13626;48.128;11.628;2024-02-28T11:03:35;40.40;;;21.75;;
25780;SDS011;13626;48.128;11.628;2024-02-28T11:06:03;42.13;;;22.65;;
25780;SDS011;13626;48.128;11.628;2024-02-28T11:08:32;39.58;;;22.00;;
25780;SDS011;13626;48.128;11.628;2024-02-28T11:11:04;36.92;;;21.48;;
25780;SDS011;13626;48.128;11.628;2024-02-28T11:13:32;41.08;;;22.15;;
25780;SDS011;13626;48.128;11.628;2024-02-28T11:16:08;38.13;;;22.77;;
25780;SDS011;13626;48.128;11.628;2024-02-28T11:18:46;42.40;;;22.50;;
25780;SDS011;13626;48.128;11.628;2024-02-28T11:21:15;42.53;;;22.27;;
25780;SDS011;13626;48.128;11.628;2024-02-28T11:23:46;41.78;;;22.30;;
25780;SDS011;13626;48.128;11.628;2024-02-28T11:26:14;40.00;;;22.17;;
25780;SDS011;13626;48.128;11.628;2024-02-28T11:28:42;44.67;;;23.05;;
25780;SDS011;13626;48.128;11.628;2024-02-28T11:31:09;40.05;;;22.02;;
25780;SDS011;13626;48.128;11.628;2024-02-28T11:33:36;39.22;;;21.55;;
25780;SDS011;13626;48.128;11.628;2024-02-28T11:36:04;40.35;;;21.40;;
25780;SDS011;13626;48.128;11.628;2024-02-28T11:38:36;44.13;;;23.15;;
25780;SDS011;13626;48.128;11.628;2024-02-28T11:41:04;39.03;;;21.98;;
25780;SDS011;13626;48.128;11.628;2024-02-28T11:43:32;41.00;;;23.10;;
25780;SDS011;13626;48.128;11.628;2024-02-28T11:46:17;40.80;;;22.93;;
25780;SDS011;13626;48.128;11.628;2024-02-28T11:48:45;38.30;;;22.67;;
25780;SDS011;13626;48.128;11.628;2024-02-28T11:51:13;38.33;;;23.05;;
25780;SDS011;13626;48.128;11.628;2024-02-28T11:53:40;43.25;;;23.05;;
25780;SDS011;13626;48.128;11.628;2024-02-28T11:56:07;45.95;;;24.02;;
25780;SDS011;13626;48.128;11.628;2024-02-28T11:58:35;47.03;;;23.67;;
25780;SDS011;13626;48.128;11.628;2024-02-28T12:01:02;42.75;;;23.55;;
25780;SDS011;13626;48.128;11.628;2024-02-28T12:03:30;43.63;;;23.88;;
25780;SDS011;13626;48.128;11.628;2024-02-28T12:05:58;38.78;;;22.83;;
25780;SDS011;13626;48.128;11.628;2024-02-28T12:08:27;46.58;;;23.92;;
25780;SDS011;13626;48.128;11.628;2024-02-28T12:11:05;38.42;;;22.40;;
25780;SDS011;13626;48.128;11.628;2024-02-28T12:13:33;41.95;;;23.45;;
25780;SDS011;13626;48.128;11.628;2024-02-28T12:16:01;45.33;;;23.85;;
25780;SDS011;13626;48.128;11.628;2024-02-28T12:18:29;44.22;;;23.85;;
25780;SDS011;13626;48.128;11.628;2024-02-28T12:20:56;41.28;;;23.45;;
25780;SDS011;13626;48.128;11.628;2024-02-28T12:23:23;43.65;;;23.40;;
25780;SDS011;13626;48.128;11.628;2024-02-28T12:25:51;43.38;;;23.92;;
25780;SDS011;13626;48.128;11.628;2024-02-28T12:28:18;42.40;;;23.38;;
25780;SDS011;13626;48.128;11.628;2024-02-28T12:30:45;42.70;;;23.85;;
25780;SDS011;13626;48.128;11.628;2024-02-28T12:33:13;41.03;;;24.45;;
25780;SDS011;13626;48.128;11.628;2024-02-28T12:35:40;41.20;;;23.65;;
25780;SDS011;13626;48.128;11.628;2024-02-28T12:38:08;39.45;;;22.17;;
25780;SDS011;13626;48.128;11.628;2024-02-28T12:40:36;39.72;;;23.40;;
25780;SDS011;13626;48.128;11.628;2024-02-28T12:43:06;41.58;;;22.33;;
25780;SDS011;13626;48.128;11.628;2024-02-28T12:45:37;41.70;;;23.02;;
25780;SDS011;13626;48.128;11.628;2024-02-28T12:48:04;44.47;;;22.65;;
25780;SDS011;13626;48.128;11.628;2024-02-28T12:50:32;43.55;;;23.45;;
25780;SDS011;13626;48.128;11.628;2024-02-28T12:53:01;40.20;;;21.55;;
25780;SDS011;13626;48.128;11.628;2024-02-28T12:55:31;38.08;;;21.35;;
25780;SDS011;13626;48.128;11.628;2024-02-28T12:57:58;41.53;;;22.20;;
25780;SDS011;13626;48.128;11.628;2024-02-28T13:00:27;43.03;;;23.08;;
25780;SDS011;13626;48.128;11.628;2024-02-28T13:02:55;43.85;;;22.13;;
25780;SDS011;13626;48.128;11.628;2024-02-28T13:05:23;43.58;;;23.42;;
25780;SDS011;13626;48.128;11.628;2024-02-28T13:07:54;40.55;;;22.20;;
25780;SDS011;13626;48.128;11.628;2024-02-28T13:10:21;39.38;;;21.30;;
25780;SDS011;13626;48.128;11.628;2024-02-28T13:12:48;37.05;;;20.83;;
25780;SDS011;13626;48.128;11.628;2024-02-28T13:15:16;43.78;;;22.65;;
25780;SDS011;13626;48.128;11.628;2024-02-28T13:17:44;35.95;;;21.55;;
25780;SDS011;13626;48.128;11.628;2024-02-28T13:20:16;42.47;;;21.85;;
25780;SDS011;13626;48.128;11.628;2024-02-28T13:22:43;37.83;;;21.20;;
25780;SDS011;13626;48.128;11.628;2024-02-28T13:25:11;38.28;;;20.52;;
25780;SDS011;13626;48.128;11.628;2024-02-28T13:27:40;36.88;;;20.48;;
25780;SDS011;13626;48.128;11.628;2024-02-28T13:30:08;38.17;;;20.42;;
25780;SDS011;13626;48.128;11.628;2024-02-28T13:32:37;38.22;;;21.08;;
25780;SDS011;13626;48.128;11.628;2024-02-28T13:35:05;39.45;;;20.50;;
25780;SDS011;13626;48.128;11.628;2024-02-28T13:37:32;36.80;;;20.52;;
25780;SDS011;13626;48.128;11.628;2024-02-28T13:40:00;35.28;;;19.75;;
25780;SDS011;13626;48.128;11.628;2024-02-28T13:42:30;37.65;;;20.50;;
25780;SDS011;13626;48.128;11.628;2024-02-28T13:44:59;39.70;;;21.13;;
25780;SDS011;13626;48.128;11.628;2024-02-28T13:47:26;41.85;;;20.92;;
25780;SDS011;13626;48.128;11.628;2024-02-28T13:49:53;38.10;;;19.52;;
25780;SDS011;13626;48.128;11.628;2024-02-28T13:52:21;36.30;;;21.08;;
25780;SDS011;13626;48.128;11.628;2024-02-28T13:54:48;35.47;;;20.20;;
25780;SDS011;13626;48.128;11.628;2024-02-28T13:57:17;39.15;;;21.58;;
25780;SDS011;13626;48.128;11.628;2024-02-28T13:59:45;39.38;;;20.20;;
25780;SDS011;13626;48.128;11.628;2024-02-28T14:02:15;38.33;;;20.60;;
25780;SDS011;13626;48.128;11.628;2024-02-28T14:04:43;38.05;;;19.88;;
25780;SDS011;13626;48.128;11.628;2024-02-28T14:07:15;36.00;;;20.60;;
25780;SDS011;13626;48.128;11.628;2024-02-28T14:09:43;38.80;;;20.50;;
25780;SDS011;13626;48.128;11.628;2024-02-28T14:12:11;41.10;;;21.75;;